Time;durP1;ratioP1;P1;durP2;ratioP2;P2;SDS_P1;SDS_P2;PMS_P1;PMS_P2;Temp;Humidity;BMP_temperature;BMP_pressure;BME280_temperature;BME280_humidity;BME280_pressure;Samples;Min_cycle;Max_cycle;Signal;HPM_P1;HPM_P2
2023/06/28 00:01:22;;;;;;;7.80;0.98;;;;;;;30.89;96.82;99894.44;7388036;19;20015;-81
2023/06/28 00:03:49;;;;;;;2.58;1.20;;;;;;;29.99;93.06;99886.75;6848141;19;9999628;-81
2023/06/28 00:06:15;;;;;;;1.42;0.65;;;;;;;27.82;100.00;99886.78;7382388;19;20011;-81
2023/06/28 00:08:41;;;;;;;3.08;0.60;;;;;;;27.52;100.00;99887.97;7390959;19;20560;-81
2023/06/28 00:11:08;;;;;;;2.03;0.90;;;;;;;27.19;100.00;99890.28;7388679;19;20048;-81
2023/06/28 00:13:34;;;;;;;2.65;0.80;;;;;;;27.09;100.00;99883.00;7384589;19;20029;-81
2023/06/28 00:16:01;;;;;;;5.00;0.88;;;;;;;26.84;100.00;99883.84;7390002;19;20018;-81
2023/06/28 00:18:29;;;;;;;1.05;0.40;;;;;;;29.20;100.00;99882.41;7387030;19;20038;-80
2023/06/28 00:20:56;;;;;;;2.35;0.70;;;;;;;27.33;100.00;99882.09;7387823;19;20296;-81
2023/06/28 00:23:22;;;;;;;3.35;0.85;;;;;;;27.21;100.00;99881.09;7390020;19;20046;-81
2023/06/28 00:25:48;;;;;;;2.88;1.02;;;;;;;27.26;100.00;99888.69;7387872;19;20022;-80
2023/06/28 00:28:15;;;;;;;1.05;0.50;;;;;;;30.71;95.40;99870.94;7386915;19;20022;-81
2023/06/28 00:30:42;;;;;;;4.30;1.02;;;;;;;29.37;100.00;99873.63;7387277;19;20014;-80
2023/06/28 00:33:08;;;;;;;2.45;1.38;;;;;;;27.49;100.00;99880.56;7387934;19;20510;-81
2023/06/28 00:35:34;;;;;;;5.47;0.90;;;;;;;27.24;100.00;99879.94;7388173;19;20033;-81
2023/06/28 00:38:00;;;;;;;3.08;0.98;;;;;;;30.29;100.00;99867.28;7390901;19;20105;-81
2023/06/28 00:40:26;;;;;;;8.18;2.05;;;;;;;27.53;100.00;99872.31;7394007;19;20018;-82
2023/06/28 00:42:53;;;;;;;2.58;0.85;;;;;;;26.89;100.00;99877.13;7395154;19;20015;-81
2023/06/28 00:45:19;;;;;;;5.55;0.90;;;;;;;26.76;100.00;99877.47;7397255;19;20018;-81
2023/06/28 00:47:46;;;;;;;3.92;0.60;;;;;;;27.10;100.00;99875.91;7396518;19;20015;-81
2023/06/28 00:50:14;;;;;;;0.85;0.43;;;;;;;26.48;100.00;99875.06;7395503;19;20010;-81
2023/06/28 00:52:40;;;;;;;1.63;0.30;;;;;;;27.01;100.00;99868.78;7398796;19;20031;-81
2023/06/28 00:55:07;;;;;;;5.20;0.75;;;;;;;27.00;100.00;99867.28;7397557;19;20022;-81
2023/06/28 00:57:34;;;;;;;3.72;1.42;;;;;;;26.94;100.00;99870.38;6870116;19;9999529;-81
2023/06/28 01:00:01;;;;;;;1.08;0.30;;;;;;;26.99;100.00;99866.50;7394930;19;20022;-81
2023/06/28 01:02:29;;;;;;;3.00;0.45;;;;;;;27.02;100.00;99865.34;7393855;19;20449;-81
2023/06/28 01:04:58;;;;;;;2.17;0.63;;;;;;;26.99;100.00;99866.50;7393641;19;20022;-81
2023/06/28 01:07:28;;;;;;;0.63;0.20;;;;;;;27.19;100.00;99855.97;7393674;19;20019;-81
2023/06/28 01:09:56;;;;;;;4.78;1.38;;;;;;;26.91;100.00;99865.09;7397094;19;20047;-81
2023/06/28 01:12:24;;;;;;;4.68;0.80;;;;;;;26.54;100.00;99863.38;7397801;19;20010;-81
2023/06/28 01:14:51;;;;;;;4.13;0.82;;;;;;;26.69;100.00;99861.13;7393408;19;20022;-80
2023/06/28 01:17:17;;;;;;;2.72;0.40;;;;;;;26.40;100.00;99860.06;7393310;19;20086;-82
2023/06/28 01:19:43;;;;;;;1.60;0.73;;;;;;;26.34;100.00;99868.13;7391192;19;20007;-81
2023/06/28 01:22:12;;;;;;;2.30;0.75;;;;;;;26.59;100.00;99868.84;7395051;19;20011;-81
2023/06/28 01:24:39;;;;;;;2.92;0.32;;;;;;;26.37;100.00;99860.50;7394011;19;20086;-81
2023/06/28 01:27:09;;;;;;;3.40;0.65;;;;;;;26.30;100.00;99854.28;7397689;19;20472;-81
2023/06/28 01:29:36;;;;;;;7.57;1.63;;;;;;;25.94;100.00;99862.56;7396502;19;20382;-81
2023/06/28 01:32:04;;;;;;;4.05;1.02;;;;;;;26.02;100.00;99862.50;7397452;19;20025;-81
2023/06/28 01:34:30;;;;;;;4.10;0.65;;;;;;;26.33;100.00;99863.78;7392294;19;20014;-81
2023/06/28 01:36:59;;;;;;;2.45;0.68;;;;;;;26.89;100.00;99868.53;7397126;19;20032;-81
2023/06/28 01:39:28;;;;;;;1.38;0.68;;;;;;;27.03;100.00;99858.25;7391453;19;20022;-81
2023/06/28 01:41:55;;;;;;;2.78;0.90;;;;;;;30.18;100.00;99853.56;7390583;19;20021;-81
2023/06/28 01:44:22;;;;;;;4.28;0.93;;;;;;;32.41;91.49;99855.94;7390038;19;20014;-81
2023/06/28 01:46:51;;;;;;;3.17;0.80;;;;;;;30.87;86.04;99864.78;7392498;19;20439;-81
2023/06/28 01:49:17;;;;;;;5.40;0.68;;;;;;;27.73;100.00;99859.63;7394112;19;20023;-81
2023/06/28 01:51:44;;;;;;;3.25;0.65;;;;;;;27.15;100.00;99854.88;7394283;19;20022;-81
2023/06/28 01:54:10;;;;;;;2.78;0.93;;;;;;;26.85;100.00;99856.78;7394608;19;20010;-81
2023/06/28 01:56:36;;;;;;;1.48;0.13;;;;;;;26.65;100.00;99860.78;7390534;19;20029;-81
2023/06/28 01:59:02;;;;;;;4.72;0.90;;;;;;;25.81;100.00;99856.38;7394508;19;20029;-81
2023/06/28 02:01:28;;;;;;;1.35;0.50;;;;;;;25.80;100.00;99858.47;7393888;19;20359;-81
2023/06/28 02:03:55;;;;;;;4.22;1.55;;;;;;;25.65;100.00;99857.81;7392218;19;20049;-81
2023/06/28 02:06:22;;;;;;;3.22;1.00;;;;;;;25.57;100.00;99857.88;7390204;19;20014;-81
2023/06/28 02:08:48;;;;;;;3.35;0.35;;;;;;;25.68;100.00;99850.97;7394063;19;20521;-81
2023/06/28 02:11:14;;;;;;;1.17;0.40;;;;;;;25.65;100.00;99849.25;7393167;19;20034;-82
2023/06/28 02:13:40;;;;;;;5.05;0.68;;;;;;;25.50;100.00;99853.75;7393457;19;20014;-80
2023/06/28 02:16:06;;;;;;;1.05;0.68;;;;;;;25.65;100.00;99846.41;7393760;19;20022;-81
2023/06/28 02:18:34;;;;;;;1.48;0.55;;;;;;;25.54;100.00;99844.78;7390977;19;20088;-81
2023/06/28 02:21:00;;;;;;;1.73;0.55;;;;;;;25.51;100.00;99843.09;7393192;19;20038;-81
2023/06/28 02:23:26;;;;;;;2.28;0.22;;;;;;;25.50;100.00;99845.19;7391699;19;20019;-81
2023/06/28 02:25:53;;;;;;;3.97;0.95;;;;;;;25.48;100.00;99838.53;7391957;19;20425;-81
2023/06/28 02:28:19;;;;;;;1.23;0.65;;;;;;;25.44;100.00;99841.81;7391627;19;20018;-81
2023/06/28 02:30:48;;;;;;;2.22;0.57;;;;;;;25.65;100.00;99835.75;7392506;19;20363;-84
2023/06/28 02:33:14;;;;;;;10.45;1.00;;;;;;;25.33;100.00;99836.53;7391127;19;20146;-82
2023/06/28 02:35:42;;;;;;;1.52;0.40;;;;;;;25.32;100.00;99832.13;7389534;19;20010;-82
2023/06/28 02:38:10;;;;;;;5.25;0.88;;;;;;;25.33;100.00;99832.91;7391808;19;20022;-84
2023/06/28 02:40:37;;;;;;;1.67;0.20;;;;;;;25.55;100.00;99815.66;7390593;19;20470;-85
2023/06/28 02:43:07;;;;;;;3.00;0.52;;;;;;;25.84;100.00;99815.25;7390667;19;20039;-86
2023/06/28 02:45:34;;;;;;;4.30;0.45;;;;;;;25.93;100.00;99814.63;7391994;19;20033;-88
2023/06/28 02:48:00;;;;;;;5.53;1.63;;;;;;;25.73;100.00;99821.47;7390213;19;20048;-84
2023/06/28 02:50:27;;;;;;;2.22;1.00;;;;;;;25.59;100.00;99815.28;7392566;19;20029;-86
2023/06/28 02:53:02;;;;;;;1.13;0.40;;;;;;;25.77;100.00;99818.94;7391405;19;20018;-91
2023/06/28 02:55:28;;;;;;;4.45;0.98;;;;;;;26.60;100.00;99818.94;7394015;19;20015;-86
2023/06/28 02:57:56;;;;;;;1.42;0.50;;;;;;;26.74;100.00;99811.56;7388188;19;20086;-89
2023/06/28 03:00:23;;;;;;;3.45;0.55;;;;;;;27.13;100.00;99817.53;7386386;19;20025;-89
2023/06/28 03:02:49;;;;;;;3.35;0.68;;;;;;;27.34;100.00;99818.59;7389709;19;20016;-80
2023/06/28 03:05:15;;;;;;;2.13;0.20;;;;;;;27.52;100.00;99817.22;7388738;19;20030;-88
2023/06/28 03:07:41;;;;;;;3.30;0.30;;;;;;;27.30;100.00;99823.97;7391365;19;20332;-86
2023/06/28 03:10:08;;;;;;;1.13;0.45;;;;;;;27.26;100.00;99808.59;7392498;19;20505;-85
2023/06/28 03:12:36;;;;;;;1.10;0.50;;;;;;;27.33;100.00;99816.31;7392583;19;20026;-85
2023/06/28 03:15:04;;;;;;;3.63;0.50;;;;;;;27.35;100.00;99816.47;7388601;19;20023;-83
2023/06/28 03:17:30;;;;;;;6.43;0.68;;;;;;;27.33;100.00;99799.16;7320819;19;20047;-81
2023/06/28 03:19:56;;;;;;;2.55;0.45;;;;;;;27.45;100.00;99808.72;7387349;19;20365;-83
2023/06/28 03:22:22;;;;;;;4.18;0.45;;;;;;;27.60;100.00;99802.78;7392245;19;20019;-81
2023/06/28 03:24:48;;;;;;;1.35;0.38;;;;;;;27.40;100.00;99801.16;7388128;19;20022;-81
2023/06/28 03:27:15;;;;;;;4.18;0.65;;;;;;;27.50;100.00;99799.13;7389949;19;20018;-81
2023/06/28 03:29:41;;;;;;;3.40;1.02;;;;;;;27.68;100.00;99809.88;7390199;19;20022;-81
2023/06/28 03:32:08;;;;;;;2.35;0.60;;;;;;;27.69;100.00;99799.97;7392773;19;20026;-81
2023/06/28 03:34:34;;;;;;;1.92;0.60;;;;;;;27.80;100.00;99790.06;7383053;19;20022;-81
2023/06/28 03:37:00;;;;;;;2.83;0.50;;;;;;;27.96;100.00;99802.75;7388836;19;20077;-82
2023/06/28 03:39:26;;;;;;;2.33;0.52;;;;;;;27.97;100.00;99804.28;7386450;19;20509;-82
2023/06/28 03:41:52;;;;;;;2.47;0.20;;;;;;;27.90;100.00;99802.28;7391794;19;20029;-81
2023/06/28 03:44:19;;;;;;;3.38;0.88;;;;;;;28.10;100.00;99803.09;7386976;19;20019;-81
2023/06/28 03:46:45;;;;;;;1.60;0.60;;;;;;;27.99;100.00;99800.81;7387743;19;20021;-81
2023/06/28 03:49:11;;;;;;;2.55;0.68;;;;;;;27.92;100.00;99799.56;7389608;19;20014;-81
2023/06/28 03:51:37;;;;;;;2.75;0.63;;;;;;;27.77;100.00;99799.81;7391604;19;20014;-81
2023/06/28 03:54:04;;;;;;;1.23;0.65;;;;;;;27.70;100.00;99794.97;7388524;19;20021;-81
2023/06/28 03:56:30;;;;;;;2.92;0.68;;;;;;;27.79;100.00;99797.13;7387167;19;20170;-81
2023/06/28 03:58:56;;;;;;;2.47;0.52;;;;;;;27.99;100.00;99798.72;7389145;19;20018;-82
2023/06/28 04:01:23;;;;;;;1.13;0.10;;;;;;;27.96;100.00;99799.88;7391360;19;20306;-81
2023/06/28 04:03:49;;;;;;;0.85;0.32;;;;;;;27.63;100.00;99801.59;7389773;19;20022;-81
2023/06/28 04:06:15;;;;;;;2.78;0.65;;;;;;;27.74;100.00;99801.03;7387743;19;20022;-82
2023/06/28 04:08:41;;;;;;;6.32;0.50;;;;;;;27.42;100.00;99798.47;7389354;19;20413;-81
2023/06/28 04:11:07;;;;;;;2.05;0.63;;;;;;;27.69;100.00;99791.38;7392537;19;20018;-82
2023/06/28 04:13:33;;;;;;;2.17;0.20;;;;;;;27.34;100.00;99789.97;7396316;19;20011;-81
2023/06/28 04:15:59;;;;;;;3.65;0.77;;;;;;;26.36;100.00;99799.75;7399320;19;20015;-81
2023/06/28 04:18:26;;;;;;;6.65;0.50;;;;;;;24.34;100.00;99803.28;7397909;19;20018;-82
2023/06/28 04:20:52;;;;;;;1.85;0.93;;;;;;;22.72;100.00;99797.75;7395768;19;20022;-81
2023/06/28 04:23:18;;;;;;;1.13;0.55;;;;;;;25.83;100.00;99802.34;7398758;19;20049;-81
2023/06/28 04:25:44;;;;;;;2.88;0.80;;;;;;;23.24;100.00;99805.66;7395730;19;20508;-81
2023/06/28 04:28:10;;;;;;;4.07;0.75;;;;;;;22.98;100.00;99805.94;7397863;19;20018;-81
2023/06/28 04:30:37;;;;;;;1.65;0.80;;;;;;;22.62;100.00;99800.34;7397406;19;20031;-81
2023/06/28 04:33:04;;;;;;;2.08;0.52;;;;;;;23.05;100.00;99791.03;7395228;19;20027;-81
2023/06/28 04:35:33;;;;;;;2.65;0.13;;;;;;;22.43;100.00;99803.44;7394892;19;20581;-82
2023/06/28 04:38:02;;;;;;;0.35;0.10;;;;;;;22.86;100.00;99796.25;7394547;19;20078;-81
2023/06/28 04:40:29;;;;;;;3.70;0.45;;;;;;;23.11;100.00;99800.13;7392378;19;20040;-81
2023/06/28 04:42:55;;;;;;;1.38;0.10;;;;;;;22.74;100.00;99795.09;7393711;19;20010;-81
2023/06/28 04:45:25;;;;;;;0.85;0.30;;;;;;;22.65;100.00;99792.78;7395955;19;20025;-81
2023/06/28 04:47:52;;;;;;;2.22;0.50;;;;;;;22.96;100.00;99803.69;7395346;19;20093;-82
2023/06/28 04:50:18;;;;;;;1.70;0.50;;;;;;;22.57;100.00;99801.97;7397194;19;20010;-81
2023/06/28 04:52:45;;;;;;;1.10;0.22;;;;;;;22.77;100.00;99793.94;7394861;19;20477;-82
2023/06/28 04:55:11;;;;;;;1.65;0.43;;;;;;;22.69;100.00;99798.84;7397142;19;20014;-82
2023/06/28 04:57:37;;;;;;;1.98;0.25;;;;;;;22.87;100.00;99792.84;7392841;19;20014;-83
2023/06/28 05:00:04;;;;;;;2.28;0.65;;;;;;;22.85;100.00;99800.44;7394297;19;20015;-83
2023/06/28 05:02:31;;;;;;;0.30;0.20;;;;;;;22.88;100.00;99793.63;7394756;19;20022;-83
2023/06/28 05:04:57;;;;;;;3.50;0.50;;;;;;;24.41;100.00;99802.47;7398814;19;20082;-83
2023/06/28 05:07:23;;;;;;;3.42;0.45;;;;;;;23.08;100.00;99796.34;7394993;19;20363;-83
2023/06/28 05:09:50;;;;;;;1.55;0.43;;;;;;;23.84;100.00;99788.72;7396925;19;20010;-84
2023/06/28 05:12:16;;;;;;;3.58;0.40;;;;;;;19.32;100.00;99793.75;7394571;19;20021;-84
2023/06/28 05:14:42;;;;;;;1.55;0.15;;;;;;;24.31;100.00;99782.41;7396580;19;20022;-84
2023/06/28 05:17:08;;;;;;;3.78;0.45;;;;;;;22.88;100.00;99787.94;7393215;19;20041;-83
2023/06/28 05:19:34;;;;;;;1.08;0.50;;;;;;;23.21;100.00;99784.06;7391473;19;20023;-83
2023/06/28 05:22:00;;;;;;;0.75;0.25;;;;;;;23.23;100.00;99778.56;7390507;19;20014;-84
2023/06/28 05:24:26;;;;;;;3.33;0.82;;;;;;;23.15;100.00;99783.50;7392999;19;20048;-83
2023/06/28 05:26:52;;;;;;;2.70;0.57;;;;;;;23.45;100.00;99780.72;7393533;19;20022;-83
2023/06/28 05:29:19;;;;;;;2.15;0.43;;;;;;;25.29;100.00;99782.00;7392516;19;20086;-84
2023/06/28 05:31:45;;;;;;;1.50;0.20;;;;;;;23.76;100.00;99784.31;7395396;19;20015;-83
2023/06/28 05:34:11;;;;;;;5.32;0.82;;;;;;;23.52;100.00;99785.63;7396664;19;20019;-86
2023/06/28 05:36:37;;;;;;;2.13;0.25;;;;;;;23.78;100.00;99785.28;7390678;19;20387;-85
2023/06/28 05:39:04;;;;;;;3.53;0.20;;;;;;;23.61;100.00;99792.84;7394019;19;20011;-84
2023/06/28 05:41:30;;;;;;;1.67;0.43;;;;;;;23.40;100.00;99790.19;7394990;19;20034;-84
2023/06/28 05:43:56;;;;;;;0.70;0.45;;;;;;;23.35;100.00;99785.44;7396581;19;20469;-84
2023/06/28 05:46:22;;;;;;;3.13;0.85;;;;;;;23.37;100.00;99788.47;7397093;19;20019;-84
2023/06/28 05:48:50;;;;;;;2.05;0.52;;;;;;;23.43;100.00;99791.16;7395079;19;20010;-84
2023/06/28 05:51:16;;;;;;;1.95;0.47;;;;;;;23.11;100.00;99783.06;7395392;19;20025;-83
2023/06/28 05:53:42;;;;;;;2.63;0.30;;;;;;;23.57;100.00;99784.72;7393363;19;20370;-83
2023/06/28 05:56:08;;;;;;;2.53;0.90;;;;;;;23.96;100.00;99780.53;7390785;19;20026;-83
2023/06/28 05:58:34;;;;;;;2.30;0.68;;;;;;;30.71;100.00;99775.28;7392698;19;20010;-83
2023/06/28 06:01:01;;;;;;;0.55;0.35;;;;;;;27.96;100.00;99782.69;7396665;19;20006;-83
2023/06/28 06:03:27;;;;;;;0.68;0.50;;;;;;;28.16;100.00;99784.28;7393082;19;20014;-83
2023/06/28 06:05:54;;;;;;;1.17;0.55;;;;;;;35.51;80.19;99783.91;7387702;19;20035;-84
2023/06/28 06:08:21;;;;;;;11.20;0.65;;;;;;;30.54;98.53;99784.22;7390308;19;20019;-84
2023/06/28 06:10:47;;;;;;;0.85;0.22;;;;;;;31.78;93.98;99791.56;7390466;19;20049;-84
2023/06/28 06:13:13;;;;;;;2.30;0.80;;;;;;;33.89;76.05;99785.81;7392494;19;20018;-84
2023/06/28 06:15:39;;;;;;;1.95;0.28;;;;;;;34.49;77.66;99778.81;7390589;19;20093;-84
2023/06/28 06:18:05;;;;;;;0.82;0.38;;;;;;;38.64;58.87;99768.25;7386650;19;20392;-84
2023/06/28 06:20:33;;;;;;;1.48;0.45;;;;;;;37.76;59.75;99772.41;7386128;19;20480;-83
2023/06/28 06:22:59;;;;;;;4.20;0.55;;;;;;;40.09;50.74;99772.78;7389679;19;20021;-84
2023/06/28 06:25:26;;;;;;;0.98;0.40;;;;;;;32.64;71.50;99778.03;7388628;19;20049;-84
2023/06/28 06:27:52;;;;;;;0.50;0.22;;;;;;;31.44;81.09;99792.31;7393660;19;20015;-84
2023/06/28 06:30:18;;;;;;;2.63;0.50;;;;;;;29.42;99.86;99786.47;7393127;19;20033;-84
2023/06/28 06:32:44;;;;;;;0.75;0.25;;;;;;;28.82;100.00;99785.69;7392577;19;20081;-83
2023/06/28 06:35:10;;;;;;;1.95;0.65;;;;;;;28.70;100.00;99784.78;7390614;19;20381;-84
2023/06/28 06:37:36;;;;;;;0.80;0.22;;;;;;;28.21;100.00;99791.06;7391624;19;20023;-83
2023/06/28 06:40:02;;;;;;;0.75;0.40;;;;;;;28.42;100.00;99786.28;7391778;19;20010;-84
2023/06/28 06:42:28;;;;;;;1.48;0.30;;;;;;;30.23;100.00;99800.78;7388885;19;20021;-85
2023/06/28 06:44:55;;;;;;;0.80;0.28;;;;;;;29.14;100.00;99798.78;7391515;19;20021;-83
2023/06/28 06:47:21;;;;;;;3.78;0.68;;;;;;;27.66;100.00;99794.66;7390610;19;20010;-84
2023/06/28 06:49:48;;;;;;;0.82;0.10;;;;;;;27.41;100.00;99794.88;7391236;19;20019;-84
2023/06/28 06:52:14;;;;;;;1.58;0.32;;;;;;;27.87;100.00;99794.91;7390878;19;20021;-84
2023/06/28 06:54:40;;;;;;;7.07;0.52;;;;;;;28.62;100.00;99794.91;7393610;19;20034;-84
2023/06/28 06:57:06;;;;;;;0.38;0.20;;;;;;;27.92;100.00;99793.84;7388956;19;20025;-84
2023/06/28 06:59:32;;;;;;;2.30;0.57;;;;;;;27.57;100.00;99795.41;7390695;19;20380;-85
2023/06/28 07:01:58;;;;;;;0.95;0.20;;;;;;;27.45;100.00;99797.28;7388427;19;20040;-85
2023/06/28 07:04:24;;;;;;;1.45;0.55;;;;;;;27.42;100.00;99798.47;7392706;19;20046;-85
2023/06/28 07:06:51;;;;;;;3.30;0.40;;;;;;;27.48;100.00;99801.81;7391238;19;20014;-85
2023/06/28 07:09:17;;;;;;;0.68;0.35;;;;;;;27.39;100.00;99799.66;7391235;19;20029;-84
2023/06/28 07:11:45;;;;;;;0.43;0.30;;;;;;;27.52;100.00;99805.00;7395302;19;20476;-85
2023/06/28 07:14:12;;;;;;;0.25;0.20;;;;;;;27.62;100.00;99800.06;7392216;19;20408;-84
2023/06/28 07:16:38;;;;;;;2.67;0.10;;;;;;;27.73;100.00;99799.50;7393108;19;20018;-85
2023/06/28 07:19:06;;;;;;;0.60;0.20;;;;;;;27.23;100.00;99812.63;7396918;19;20689;-85
2023/06/28 07:21:32;;;;;;;0.52;0.13;;;;;;;26.94;100.00;99801.03;7392705;19;20011;-85
2023/06/28 07:23:58;;;;;;;1.00;0.43;;;;;;;27.17;100.00;99795.00;7393671;19;20494;-85
2023/06/28 07:26:24;;;;;;;0.00;0.00;;;;;;;27.07;100.00;99803.53;7389067;19;20018;-85
2023/06/28 07:28:50;;;;;;;0.38;0.20;;;;;;;27.12;100.00;99804.59;7390969;19;20019;-85
2023/06/28 07:31:16;;;;;;;1.02;0.43;;;;;;;26.99;100.00;99797.91;7389223;19;20473;-85
2023/06/28 07:33:43;;;;;;;0.35;0.20;;;;;;;30.54;100.00;99807.22;7389189;19;20010;-85
2023/06/28 07:36:09;;;;;;;0.10;0.00;;;;;;;33.75;89.63;99801.63;7389929;19;20021;-85
2023/06/28 07:38:35;;;;;;;0.47;0.20;;;;;;;34.09;76.79;99818.69;7391445;19;20474;-85
2023/06/28 07:41:01;;;;;;;1.92;0.15;;;;;;;38.18;64.88;99810.31;7389950;19;20485;-85
2023/06/28 07:43:27;;;;;;;1.73;0.43;;;;;;;34.75;70.42;99806.94;7391634;19;20089;-85
2023/06/28 07:45:58;;;;;;;0.40;0.10;;;;;;;31.41;82.38;99814.47;7389694;19;20423;-85
2023/06/28 07:48:28;;;;;;;0.38;0.13;;;;;;;31.47;96.72;99804.72;7389332;19;20023;-85
2023/06/28 07:50:55;;;;;;;0.20;0.20;;;;;;;36.29;62.95;99803.38;7389002;19;20541;-85
2023/06/28 07:53:21;;;;;;;0.28;0.00;;;;;;;33.56;87.93;99808.56;7389386;19;20032;-83
2023/06/28 07:55:49;;;;;;;0.68;0.17;;;;;;;40.02;55.18;99809.09;7392114;19;20082;-83
2023/06/28 07:58:15;;;;;;;0.75;0.28;;;;;;;35.29;62.17;99817.59;7388374;19;20045;-84
2023/06/28 08:00:41;;;;;;;0.20;0.15;;;;;;;36.60;60.52;99799.66;7386546;19;20010;-83
2023/06/28 08:03:08;;;;;;;0.55;0.10;;;;;;;36.67;61.18;99802.13;7387985;19;20010;-84
2023/06/28 08:05:34;;;;;;;0.70;0.40;;;;;;;30.66;91.39;99819.53;7385920;19;20057;-83
2023/06/28 08:08:00;;;;;;;0.45;0.10;;;;;;;36.69;68.98;99822.53;7388943;19;20018;-83
2023/06/28 08:10:26;;;;;;;1.02;0.10;;;;;;;36.41;63.02;99809.69;7389864;19;20022;-83
2023/06/28 08:12:52;;;;;;;0.10;0.00;;;;;;;39.42;54.43;99807.97;7390252;19;20026;-84
2023/06/28 08:15:18;;;;;;;0.22;0.20;;;;;;;40.02;51.86;99803.25;7389507;19;20361;-84
2023/06/28 08:17:46;;;;;;;0.40;0.10;;;;;;;36.73;56.60;99816.94;7386445;19;20010;-84
2023/06/28 08:20:12;;;;;;;0.22;0.00;;;;;;;39.31;51.23;99804.00;7385741;19;20370;-84
2023/06/28 08:22:38;;;;;;;0.25;0.00;;;;;;;33.85;62.84;99816.66;7389028;19;20462;-84
2023/06/28 08:25:05;;;;;;;5.90;0.10;;;;;;;31.63;73.09;99814.34;7385550;19;20132;-83
2023/06/28 08:27:31;;;;;;;0.68;0.22;;;;;;;33.06;86.62;99808.59;7389926;19;20391;-83
2023/06/28 08:29:58;;;;;;;1.05;0.10;;;;;;;36.68;70.16;99809.44;7388966;19;20558;-83
2023/06/28 08:32:24;;;;;;;1.65;0.10;;;;;;;43.57;43.47;99799.91;7389307;19;20477;-83
2023/06/28 08:34:50;;;;;;;0.80;0.00;;;;;;;44.69;38.98;99793.88;7390237;19;20026;-84
2023/06/28 08:37:17;;;;;;;0.20;0.00;;;;;;;45.07;37.05;99791.25;7387512;19;20010;-84
2023/06/28 08:39:43;;;;;;;0.38;0.10;;;;;;;45.26;35.83;99787.00;7387671;19;20010;-84
2023/06/28 08:42:10;;;;;;;0.32;0.20;;;;;;;36.06;48.57;99800.91;7386632;19;20399;-84
2023/06/28 08:44:38;;;;;;;0.45;0.00;;;;;;;41.97;43.69;99786.88;7387829;19;20039;-84
2023/06/28 08:47:06;;;;;;;0.75;0.10;;;;;;;42.89;39.93;99790.81;7389635;19;20019;-84
2023/06/28 08:49:32;;;;;;;0.45;0.10;;;;;;;42.34;39.56;99794.94;7388777;19;20028;-84
2023/06/28 08:51:59;;;;;;;1.10;0.30;;;;;;;37.99;50.18;99788.50;7387816;19;20053;-84
2023/06/28 08:54:28;;;;;;;0.20;0.10;;;;;;;40.86;43.72;99792.38;7388031;19;20022;-84
2023/06/28 08:56:58;;;;;;;1.02;0.15;;;;;;;42.74;40.25;99786.88;7387430;19;20029;-84
2023/06/28 08:59:24;;;;;;;1.63;0.10;;;;;;;43.24;38.87;99789.13;7391523;19;20039;-84
2023/06/28 09:01:55;;;;;;;2.17;0.15;;;;;;;42.50;39.76;99783.53;7401194;19;20010;-84
2023/06/28 09:04:27;;;;;;;3.97;0.00;;;;;;;40.69;42.03;99785.38;7393598;19;20015;-83
2023/06/28 09:06:55;;;;;;;2.95;0.10;;;;;;;40.70;41.32;99778.06;7395863;19;20010;-84
2023/06/28 09:09:23;;;;;;;1.02;0.20;;;;;;;42.03;39.92;99767.25;7393642;19;20082;-85
2023/06/28 09:11:50;;;;;;;0.40;0.10;;;;;;;42.60;38.89;99772.00;7396977;19;20019;-84
2023/06/28 09:14:16;;;;;;;0.00;0.00;;;;;;;35.45;49.55;99783.59;7392029;19;20018;-83
2023/06/28 09:16:42;;;;;;;0.10;0.10;;;;;;;38.09;46.17;99780.19;7392978;19;20015;-84
2023/06/28 09:19:08;;;;;;;0.10;0.00;;;;;;;34.15;57.54;99775.66;7395315;19;20014;-85
2023/06/28 09:21:34;;;;;;;0.45;0.10;;;;;;;33.17;66.89;99767.38;7395480;19;20355;-85
2023/06/28 09:24:00;;;;;;;0.00;0.00;;;;;;;32.69;74.34;99771.88;7395702;19;20019;-86
2023/06/28 09:26:31;;;;;;;0.90;0.10;;;;;;;32.69;78.78;99777.66;7393969;19;20018;-85
2023/06/28 09:29:07;;;;;;;0.40;0.00;;;;;;;32.78;76.79;99770.97;7394407;19;20481;-84
2023/06/28 09:31:42;;;;;;;2.25;0.00;;;;;;;34.35;69.44;99764.38;7394908;19;20006;-83
2023/06/28 09:34:08;;;;;;;1.15;0.15;;;;;;;37.25;55.81;99760.97;7393089;19;20020;-84
2023/06/28 09:36:38;;;;;;;2.72;0.00;;;;;;;37.00;60.77;99751.97;7389979;19;20395;-84
2023/06/28 09:39:05;;;;;;;0.73;0.00;;;;;;;40.63;48.77;99764.78;7393300;19;20047;-84
2023/06/28 09:41:53;;;;;;;1.92;0.10;;;;;;;38.08;53.16;99755.41;7392546;19;20010;-83
2023/06/28 09:44:30;;;;;;;0.10;0.10;;;;;;;40.28;47.10;99759.44;7396053;19;20017;-84
2023/06/28 09:47:05;;;;;;;0.20;0.00;;;;;;;37.53;51.51;99754.81;7394769;19;20014;-84
2023/06/28 09:49:31;;;;;;;0.10;0.00;;;;;;;39.30;47.80;99755.16;7395279;19;20039;-83
2023/06/28 09:52:03;;;;;;;0.30;0.00;;;;;;;34.23;61.15;99757.97;7394233;19;20334;-84
2023/06/28 09:54:49;;;;;;;1.10;0.32;;;;;;;33.73;69.07;99758.94;7393414;19;20043;-84
2023/06/28 09:57:16;;;;;;;0.17;0.10;;;;;;;33.73;70.82;99746.63;7392312;19;20018;-84
2023/06/28 09:59:44;;;;;;;0.10;0.00;;;;;;;33.58;71.87;99754.56;7392410;19;20025;-84
2023/06/28 10:02:12;;;;;;;0.10;0.10;;;;;;;33.38;72.69;99758.44;7391817;19;20469;-84
2023/06/28 10:04:38;;;;;;;0.45;0.10;;;;;;;33.43;74.55;99757.28;7389305;19;20018;-84
2023/06/28 10:07:06;;;;;;;0.20;0.00;;;;;;;34.03;69.95;99757.69;7391567;19;20014;-84
2023/06/28 10:09:36;;;;;;;0.25;0.10;;;;;;;33.87;70.96;99753.94;7392199;19;20403;-84
2023/06/28 10:12:10;;;;;;;0.10;0.10;;;;;;;33.75;73.02;99756.16;7391714;19;20422;-84
2023/06/28 10:14:41;;;;;;;0.20;0.10;;;;;;;33.55;75.99;99755.81;7391409;19;20021;-84
2023/06/28 10:17:08;;;;;;;;;;;;;;;34.09;73.45;99763.03;7390063;19;20010;-83
2023/06/28 10:19:35;;;;;;;1.00;0.10;;;;;;;37.46;60.86;99761.78;7391037;19;19922;-83
2023/06/28 10:22:01;;;;;;;0.15;0.10;;;;;;;36.29;60.75;99756.97;7387631;19;20351;-84
2023/06/28 10:24:31;;;;;;;0.40;0.05;;;;;;;38.36;54.02;99759.31;7388427;19;20027;-84
2023/06/28 10:27:00;;;;;;;4.57;0.10;;;;;;;35.89;58.47;99760.97;7389361;19;20018;-83
2023/06/28 10:29:26;;;;;;;0.93;0.10;;;;;;;38.52;51.94;99754.06;7389295;19;20014;-83
2023/06/28 10:31:54;;;;;;;0.10;0.00;;;;;;;38.84;51.05;99762.38;7393193;19;20404;-84
2023/06/28 10:34:21;;;;;;;0.95;0.20;;;;;;;39.71;47.98;99763.69;7389560;19;20391;-84
2023/06/28 10:36:48;;;;;;;0.05;0.03;;;;;;;39.99;47.53;99755.03;7393352;19;20038;-88
2023/06/28 10:39:15;;;;;;;7.22;0.15;;;;;;;39.85;46.06;99749.50;7393893;19;20353;-85
2023/06/28 10:41:42;;;;;;;1.65;0.10;;;;;;;36.40;53.04;99756.00;7397020;19;20378;-85
2023/06/28 10:44:08;;;;;;;0.45;0.10;;;;;;;35.90;56.48;99750.88;7394348;19;20366;-86
2023/06/28 10:46:36;;;;;;;0.28;0.00;;;;;;;35.94;57.97;99754.69;7393751;19;20461;-85
2023/06/28 10:49:05;;;;;;;0.57;0.10;;;;;;;36.02;57.92;99757.97;7394287;19;20010;-85
2023/06/28 10:51:34;;;;;;;0.32;0.00;;;;;;;36.07;57.42;99761.78;7392084;19;20022;-84
2023/06/28 10:54:10;;;;;;;0.70;0.08;;;;;;;35.91;57.38;99758.88;7394084;19;20018;-85
2023/06/28 10:57:00;;;;;;;0.10;0.00;;;;;;;35.73;58.68;99761.00;7393225;19;20015;-85
2023/06/28 10:59:26;;;;;;;1.48;0.10;;;;;;;35.91;58.62;99752.38;7391863;19;20100;-86
2023/06/28 11:01:53;;;;;;;0.22;0.08;;;;;;;35.32;59.63;99752.56;7392241;19;20011;-84
2023/06/28 11:04:25;;;;;;;0.10;0.00;;;;;;;35.35;60.61;99759.94;7391071;19;20018;-87
2023/06/28 11:07:16;;;;;;;1.30;0.10;;;;;;;35.22;60.75;99760.00;7394088;19;20469;-88
2023/06/28 11:10:16;;;;;;;0.15;0.05;;;;;;;35.11;61.66;99750.09;7391262;19;20023;-87
2023/06/28 11:12:50;;;;;;;;;;;;;;;35.07;61.24;99758.59;7392683;19;20049;-87
2023/06/28 11:15:27;;;;;;;0.10;0.00;;;;;;;35.19;61.71;99756.28;7388940;19;19939;-82
2023/06/28 11:17:53;;;;;;;0.22;0.10;;;;;;;35.42;61.93;99747.25;7390229;19;20054;-79
2023/06/28 11:21:01;;;;;;;0.28;0.10;;;;;;;35.37;62.26;99747.72;7394605;19;20018;-87
2023/06/28 11:23:44;;;;;;;0.70;0.00;;;;;;;35.90;61.45;99742.16;7392878;19;20038;-82
2023/06/28 11:26:17;;;;;;;0.28;0.10;;;;;;;35.38;62.14;99744.16;7384209;19;20019;-66
2023/06/28 11:28:55;;;;;;;0.00;0.00;;;;;;;35.20;62.74;99746.19;7390086;19;20006;-67
2023/06/28 11:31:25;;;;;;;0.68;0.00;;;;;;;35.32;63.27;99740.97;7394044;19;20019;-67